Time;durP1;ratioP1;P1;durP2;ratioP2;P2;SDS_P1;SDS_P2;PMS_P1;PMS_P2;Temp;Humidity;BMP_temperature;BMP_pressure;BME280_temperature;BME280_humidity;BME280_pressure;Samples;Min_cycle;Max_cycle;Signal;HPM_P1;HPM_P2
2023/06/10 00:02:21;;;;;;;9.80;9.10;;;20.80;99.90;;;;;;5030086;28;20444;-71
2023/06/10 00:04:47;;;;;;;9.73;8.90;;;20.80;99.90;;;;;;5028897;28;20431;-71
2023/06/10 00:07:13;;;;;;;9.90;8.90;;;20.60;99.90;;;;;;5030448;28;20231;-71
2023/06/10 00:09:38;;;;;;;9.30;8.50;;;20.60;99.90;;;;;;5030537;28;20414;-71
2023/06/10 00:12:09;;;;;;;10.67;9.77;;;20.50;99.90;;;;;;5028703;28;20174;-71
2023/06/10 00:14:40;;;;;;;10.50;9.70;;;20.50;99.90;;;;;;5030089;28;20231;-71
2023/06/10 00:17:09;;;;;;;9.90;9.00;;;20.40;99.90;;;;;;5030205;28;20496;-71
2023/06/10 00:19:36;;;;;;;9.73;9.03;;;20.40;99.90;;;;;;5029963;28;21275;-71
2023/06/10 00:22:02;;;;;;;10.40;9.40;;;20.40;99.90;;;;;;5028239;28;20405;-71
2023/06/10 00:24:29;;;;;;;10.47;9.67;;;20.30;99.90;;;;;;5028683;28;20422;-71
2023/06/10 00:26:54;;;;;;;10.87;9.90;;;20.30;99.90;;;;;;5030211;28;20428;-71
2023/06/10 00:29:20;;;;;;;11.30;10.40;;;20.30;99.90;;;;;;5011516;28;20461;-71
2023/06/10 00:31:46;;;;;;;11.40;10.20;;;20.30;99.90;;;;;;5009669;28;20190;-71
2023/06/10 00:34:12;;;;;;;12.13;11.13;;;20.20;99.90;;;;;;5009836;28;20191;-71
2023/06/10 00:36:38;;;;;;;12.00;10.97;;;20.10;99.90;;;;;;5010290;28;20440;-71
2023/06/10 00:39:04;;;;;;;10.93;10.03;;;20.10;99.90;;;;;;5009980;28;20214;-71
2023/06/10 00:41:30;;;;;;;12.23;11.13;;;20.10;99.90;;;;;;5009603;28;20531;-71
2023/06/10 00:43:56;;;;;;;12.00;11.00;;;20.10;99.90;;;;;;5009819;28;20411;-72
2023/06/10 00:46:25;;;;;;;12.20;11.10;;;20.10;99.90;;;;;;5009991;28;20769;-71
2023/06/10 00:48:50;;;;;;;12.67;11.53;;;20.10;99.90;;;;;;5010158;28;20194;-71
2023/06/10 00:51:19;;;;;;;11.70;10.90;;;20.10;99.90;;;;;;5009384;28;20468;-71
2023/06/10 00:53:45;;;;;;;12.37;11.37;;;20.10;99.90;;;;;;5009670;28;20179;-71
2023/06/10 00:56:12;;;;;;;12.13;11.13;;;20.10;99.90;;;;;;5009485;28;20426;-71
2023/06/10 00:58:38;;;;;;;12.27;11.17;;;20.10;99.90;;;;;;5009621;28;20468;-71
2023/06/10 01:01:04;;;;;;;12.20;11.10;;;20.00;99.90;;;;;;5009844;28;20437;-71
2023/06/10 01:03:30;;;;;;;18.13;11.43;;;20.10;99.90;;;;;;5008861;28;20179;-71
2023/06/10 01:06:03;;;;;;;12.50;11.30;;;20.10;99.90;;;;;;5009678;28;20187;-71
2023/06/10 01:08:38;;;;;;;12.67;11.60;;;20.10;99.90;;;;;;5009436;28;21053;-71
2023/06/10 01:11:08;;;;;;;12.20;11.10;;;20.00;99.90;;;;;;5009710;28;20471;-71
2023/06/10 01:13:37;;;;;;;11.87;10.97;;;20.00;99.90;;;;;;5008861;28;20414;-71
2023/06/10 01:16:04;;;;;;;12.00;10.87;;;20.00;99.90;;;;;;5009660;28;20775;-71
2023/06/10 01:18:30;;;;;;;11.77;10.77;;;20.00;99.90;;;;;;5009248;28;20841;-71
2023/06/10 01:20:57;;;;;;;12.77;11.60;;;20.00;99.90;;;;;;5008044;28;20931;-71
2023/06/10 01:23:23;;;;;;;11.83;10.83;;;20.00;99.90;;;;;;5008507;28;20429;-71
2023/06/10 01:26:09;;;;;;;11.57;10.67;;;19.90;99.90;;;;;;5009375;28;20417;-71
2023/06/10 01:28:53;;;;;;;12.10;11.10;;;19.80;99.90;;;;;;5021166;28;20440;-71
2023/06/10 01:31:47;;;;;;;12.80;11.60;;;19.80;99.90;;;;;;5028440;28;20413;-71
2023/06/10 01:34:15;;;;;;;13.30;11.07;;;19.80;99.90;;;;;;5028776;28;20949;-71
2023/06/10 01:36:47;;;;;;;12.10;11.00;;;19.80;99.90;;;;;;5028912;28;20419;-71
2023/06/10 01:39:16;;;;;;;11.70;10.70;;;19.80;99.90;;;;;;5028991;28;20467;-71
2023/06/10 01:41:42;;;;;;;11.60;10.70;;;19.80;99.90;;;;;;5027048;28;20414;-71
2023/06/10 01:44:10;;;;;;;12.10;10.90;;;19.70;99.90;;;;;;5028559;28;20417;-71
2023/06/10 01:46:36;;;;;;;12.50;11.47;;;19.80;99.90;;;;;;5028827;28;20428;-71
2023/06/10 01:49:01;;;;;;;13.40;12.30;;;19.70;99.90;;;;;;5028813;28;20429;-71
2023/06/10 01:51:27;;;;;;;12.30;11.20;;;19.70;99.90;;;;;;5028195;28;20416;-71
2023/06/10 01:53:53;;;;;;;13.13;12.00;;;19.70;99.90;;;;;;5028451;28;20563;-71
2023/06/10 01:56:19;;;;;;;13.23;12.03;;;19.70;99.90;;;;;;5028972;28;20189;-71
2023/06/10 01:58:48;;;;;;;16.07;11.90;;;19.70;99.90;;;;;;5028461;28;20644;-71
2023/06/10 02:01:14;;;;;;;12.40;11.30;;;19.70;99.90;;;;;;5028573;28;20420;-71
2023/06/10 02:03:40;;;;;;;13.33;12.13;;;19.60;99.90;;;;;;5028133;28;20418;-71
2023/06/10 02:06:06;;;;;;;13.30;12.10;;;19.50;99.90;;;;;;5027349;28;20429;-71
2023/06/10 02:08:31;;;;;;;12.80;11.70;;;19.50;99.90;;;;;;5032174;28;20240;-71
2023/06/10 02:10:57;;;;;;;12.70;11.50;;;19.40;99.90;;;;;;5014842;28;20201;-71
2023/06/10 02:13:22;;;;;;;13.73;12.43;;;19.50;99.90;;;;;;5032011;28;20254;-71
2023/06/10 02:15:48;;;;;;;13.93;12.60;;;19.50;99.90;;;;;;5032552;28;20182;-71
2023/06/10 02:18:14;;;;;;;12.70;11.40;;;19.50;99.90;;;;;;5032430;28;20206;-71
2023/06/10 02:20:39;;;;;;;13.77;12.57;;;19.30;99.90;;;;;;5031397;28;20205;-71
2023/06/10 02:23:05;;;;;;;13.57;12.20;;;19.30;99.90;;;;;;5031441;28;20265;-71
2023/06/10 02:25:31;;;;;;;14.50;13.10;;;19.30;99.90;;;;;;5031187;28;20257;-71
2023/06/10 02:27:57;;;;;;;13.57;12.37;;;19.30;99.90;;;;;;5025279;28;20198;-71
2023/06/10 02:30:22;;;;;;;13.50;12.40;;;19.20;99.90;;;;;;5012811;28;20183;-71
2023/06/10 02:32:48;;;;;;;13.23;12.00;;;19.20;99.90;;;;;;5011681;28;20668;-71
2023/06/10 02:35:14;;;;;;;12.80;11.70;;;19.20;99.90;;;;;;5012366;28;21138;-71
2023/06/10 02:37:40;;;;;;;12.17;11.10;;;19.20;99.90;;;;;;5011000;28;20203;-71
2023/06/10 02:40:07;;;;;;;13.27;12.07;;;19.20;99.90;;;;;;5012461;28;20460;-71
2023/06/10 02:42:32;;;;;;;13.60;12.40;;;19.20;99.90;;;;;;5010254;28;20790;-71
2023/06/10 02:44:58;;;;;;;13.83;12.73;;;19.10;99.90;;;;;;5010876;28;20410;-71
2023/06/10 02:47:24;;;;;;;14.97;13.57;;;19.10;99.90;;;;;;5012065;28;20198;-71
2023/06/10 02:49:50;;;;;;;15.10;13.63;;;19.00;99.90;;;;;;5012245;28;20186;-71
2023/06/10 02:52:15;;;;;;;14.53;13.20;;;19.00;99.90;;;;;;5011612;28;20555;-71
2023/06/10 02:54:41;;;;;;;14.10;12.60;;;18.90;99.90;;;;;;5010643;28;20187;-71
2023/06/10 02:57:07;;;;;;;14.87;13.57;;;18.90;99.90;;;;;;5011987;28;20179;-71
2023/06/10 02:59:33;;;;;;;15.33;13.93;;;18.80;99.90;;;;;;5011934;28;20199;-71
2023/06/10 03:02:01;;;;;;;14.57;13.30;;;18.90;99.90;;;;;;5011387;28;20413;-71
2023/06/10 03:04:28;;;;;;;14.03;12.80;;;18.80;99.90;;;;;;5011521;28;20513;-71
2023/06/10 03:06:54;;;;;;;15.13;13.73;;;18.80;99.90;;;;;;5011937;28;20489;-71
2023/06/10 03:09:20;;;;;;;15.23;13.93;;;18.80;99.90;;;;;;5012224;28;20960;-71
2023/06/10 03:11:46;;;;;;;15.00;13.87;;;18.90;99.90;;;;;;5011185;28;20206;-71
2023/06/10 03:14:12;;;;;;;14.67;13.33;;;18.90;99.90;;;;;;5011455;28;20438;-71
2023/06/10 03:16:42;;;;;;;15.43;14.03;;;18.90;99.90;;;;;;5011709;28;20186;-70
2023/06/10 03:19:08;;;;;;;15.70;14.30;;;18.90;99.90;;;;;;5011322;28;20218;-71
2023/06/10 03:21:35;;;;;;;15.10;13.80;;;18.80;99.90;;;;;;5009558;28;21327;-71
2023/06/10 03:24:01;;;;;;;16.60;15.20;;;18.80;99.90;;;;;;5010009;28;20417;-71
2023/06/10 03:26:27;;;;;;;14.83;13.33;;;18.80;99.90;;;;;;5011488;28;20981;-71
2023/06/10 03:28:53;;;;;;;16.10;14.70;;;18.70;99.90;;;;;;5025791;28;20527;-71
2023/06/10 03:31:19;;;;;;;16.07;14.47;;;18.70;99.90;;;;;;5030774;28;20182;-71
2023/06/10 03:33:44;;;;;;;15.80;14.20;;;18.70;99.90;;;;;;5030764;28;20186;-71
2023/06/10 03:36:10;;;;;;;14.80;13.43;;;18.70;99.90;;;;;;5031244;28;20175;-70
2023/06/10 03:38:36;;;;;;;15.20;13.90;;;18.60;99.90;;;;;;5030939;28;20196;-71
2023/06/10 03:41:02;;;;;;;15.67;14.17;;;18.60;99.90;;;;;;5031133;28;20956;-70
2023/06/10 03:43:28;;;;;;;15.93;14.43;;;18.60;99.90;;;;;;5030016;28;20178;-71
2023/06/10 03:45:53;;;;;;;16.30;14.90;;;18.50;99.90;;;;;;5031078;28;20934;-70
2023/06/10 03:48:19;;;;;;;16.23;14.83;;;18.50;99.90;;;;;;5030657;28;20198;-71
2023/06/10 03:50:47;;;;;;;16.93;15.30;;;18.40;99.90;;;;;;5030907;28;20663;-71
2023/06/10 03:53:13;;;;;;;17.00;15.50;;;18.40;99.90;;;;;;5029891;28;20174;-71
2023/06/10 03:55:39;;;;;;;17.67;15.87;;;18.40;99.90;;;;;;5030909;28;20410;-71
2023/06/10 03:58:05;;;;;;;16.10;14.70;;;18.40;99.90;;;;;;5030681;28;20274;-71
2023/06/10 04:00:30;;;;;;;16.70;15.20;;;18.50;99.90;;;;;;5029399;28;20552;-71
2023/06/10 04:02:57;;;;;;;17.57;15.93;;;18.50;99.90;;;;;;5029673;28;20182;-71
2023/06/10 04:05:23;;;;;;;18.77;17.07;;;18.50;99.90;;;;;;5030345;28;20202;-71
2023/06/10 04:07:49;;;;;;;17.97;16.40;;;18.50;99.90;;;;;;5030527;28;21134;-70
2023/06/10 04:10:15;;;;;;;18.07;16.37;;;18.60;99.90;;;;;;5030458;28;20182;-71
2023/06/10 04:12:42;;;;;;;19.27;17.57;;;18.60;99.90;;;;;;5029849;28;20774;-71
2023/06/10 04:15:08;;;;;;;17.93;16.33;;;18.60;99.90;;;;;;5030145;28;20516;-70
2023/06/10 04:17:34;;;;;;;18.03;16.53;;;18.50;99.90;;;;;;5030215;28;20464;-71
2023/06/10 04:20:00;;;;;;;18.63;17.03;;;18.60;99.90;;;;;;5030185;28;20464;-71
2023/06/10 04:22:26;;;;;;;17.17;15.67;;;18.50;99.90;;;;;;5028118;28;21206;-71
2023/06/10 04:24:52;;;;;;;17.27;15.80;;;18.50;99.90;;;;;;5029422;28;20753;-71
2023/06/10 04:27:18;;;;;;;17.73;16.20;;;18.50;99.90;;;;;;5028371;28;20566;-71
2023/06/10 04:29:44;;;;;;;18.80;17.10;;;18.50;99.90;;;;;;5009729;28;20493;-71
2023/06/10 04:32:10;;;;;;;19.97;17.97;;;18.50;99.90;;;;;;5008562;28;20837;-70
2023/06/10 04:34:38;;;;;;;18.40;16.70;;;18.60;99.90;;;;;;5009986;28;20675;-71
2023/06/10 04:37:05;;;;;;;18.90;17.00;;;18.60;99.90;;;;;;5010314;28;20274;-71
2023/06/10 04:39:30;;;;;;;19.33;17.57;;;18.50;99.90;;;;;;5009899;28;20540;-71
2023/06/10 04:41:56;;;;;;;18.23;16.43;;;18.50;99.90;;;;;;5009565;28;20492;-71
2023/06/10 04:44:22;;;;;;;18.13;16.53;;;18.50;99.90;;;;;;5009728;28;20175;-71
2023/06/10 04:46:47;;;;;;;17.43;15.83;;;18.60;99.90;;;;;;5010252;28;20250;-71
2023/06/10 04:49:16;;;;;;;16.47;14.87;;;18.60;99.90;;;;;;5009745;28;20198;-71
2023/06/10 04:51:42;;;;;;;17.70;16.10;;;18.70;99.90;;;;;;5009441;28;20183;-71
2023/06/10 04:54:08;;;;;;;16.03;14.63;;;18.70;99.90;;;;;;5008254;28;20511;-71
2023/06/10 04:56:33;;;;;;;18.30;15.03;;;18.80;99.90;;;;;;5010018;28;20198;-71
2023/06/10 04:58:59;;;;;;;15.23;13.90;;;18.80;99.90;;;;;;5009640;28;21015;-71
2023/06/10 05:01:25;;;;;;;15.60;14.30;;;18.90;99.90;;;;;;5008043;28;20257;-71
2023/06/10 05:03:51;;;;;;;15.40;13.80;;;19.00;99.90;;;;;;5009392;28;20443;-71
2023/06/10 05:06:17;;;;;;;15.40;13.93;;;19.10;99.90;;;;;;5009717;28;20222;-71
2023/06/10 05:08:43;;;;;;;14.67;13.33;;;19.10;99.90;;;;;;5009438;28;20203;-71
2023/06/10 05:11:09;;;;;;;13.70;12.47;;;19.20;99.90;;;;;;5009778;28;20178;-71
2023/06/10 05:13:34;;;;;;;15.60;13.77;;;19.30;99.90;;;;;;5008686;28;20625;-71
2023/06/10 05:16:00;;;;;;;13.20;11.90;;;19.40;99.90;;;;;;5009751;28;20186;-71
2023/06/10 05:18:26;;;;;;;14.37;12.97;;;19.50;99.90;;;;;;5009918;28;20290;-71
2023/06/10 05:20:53;;;;;;;12.77;11.67;;;19.60;99.90;;;;;;5008091;28;20560;-71
2023/06/10 05:23:19;;;;;;;13.30;12.00;;;19.60;99.90;;;;;;5008495;28;20266;-71
2023/06/10 05:25:45;;;;;;;12.50;11.40;;;19.70;99.90;;;;;;5009442;28;20525;-71
2023/06/10 05:28:11;;;;;;;12.30;11.20;;;19.80;99.90;;;;;;5017901;28;20443;-71
2023/06/10 05:30:37;;;;;;;11.80;10.63;;;19.90;99.90;;;;;;5027898;28;20425;-71
2023/06/10 05:33:04;;;;;;;12.30;11.20;;;20.00;99.90;;;;;;5028531;28;20182;-71
2023/06/10 05:35:30;;;;;;;12.10;11.00;;;20.10;99.90;;;;;;5029085;28;20864;-71
2023/06/10 05:37:56;;;;;;;12.47;11.47;;;20.20;99.90;;;;;;5028859;28;20480;-71
2023/06/10 05:40:21;;;;;;;12.33;11.03;;;20.30;99.90;;;;;;5028864;28;20456;-71
2023/06/10 05:42:47;;;;;;;10.50;9.60;;;20.40;99.90;;;;;;5028310;28;20624;-71
2023/06/10 05:45:13;;;;;;;11.30;10.20;;;20.50;99.90;;;;;;5028722;28;20187;-71
2023/06/10 05:47:39;;;;;;;11.90;10.70;;;20.70;99.90;;;;;;5028890;28;20198;-71
2023/06/10 05:50:07;;;;;;;12.57;11.30;;;20.80;99.90;;;;;;5027510;28;20189;-71
2023/06/10 05:52:34;;;;;;;11.30;10.20;;;20.90;99.90;;;;;;5027128;28;20421;-71
2023/06/10 05:54:59;;;;;;;11.27;10.20;;;21.00;99.90;;;;;;5028324;28;20413;-71
2023/06/10 05:57:25;;;;;;;11.07;10.07;;;21.10;99.90;;;;;;5028664;28;20773;-71
2023/06/10 05:59:51;;;;;;;10.83;9.73;;;21.30;99.90;;;;;;5028475;28;20205;-71
2023/06/10 06:02:17;;;;;;;10.33;9.40;;;21.40;99.90;;;;;;5028188;28;20769;-71
2023/06/10 06:04:43;;;;;;;10.07;9.20;;;21.50;99.90;;;;;;5028256;28;20818;-71
2023/06/10 06:07:08;;;;;;;11.03;9.83;;;21.70;99.90;;;;;;5028803;28;20183;-71
2023/06/10 06:09:34;;;;;;;10.37;9.37;;;21.70;99.90;;;;;;5027389;28;20200;-71
2023/06/10 06:12:00;;;;;;;9.37;8.47;;;21.80;99.90;;;;;;5028190;28;20523;-71
2023/06/10 06:14:26;;;;;;;9.70;8.80;;;21.90;99.90;;;;;;5028283;28;20413;-71
2023/06/10 06:16:51;;;;;;;10.80;9.77;;;22.10;99.90;;;;;;5028718;28;20256;-71
2023/06/10 06:19:17;;;;;;;10.67;9.57;;;22.20;99.90;;;;;;5028470;28;20221;-71
2023/06/10 06:21:43;;;;;;;9.47;8.50;;;22.20;99.90;;;;;;5026688;28;20182;-71
2023/06/10 06:24:08;;;;;;;10.63;8.60;;;22.30;99.90;;;;;;5028362;28;20174;-71
2023/06/10 06:26:34;;;;;;;9.70;8.80;;;22.30;99.90;;;;;;5028642;28;20177;-71
2023/06/10 06:29:00;;;;;;;9.57;8.67;;;22.30;99.90;;;;;;5013150;28;20246;-71
2023/06/10 06:31:25;;;;;;;12.03;8.20;;;22.40;99.90;;;;;;5008170;28;20192;-71
2023/06/10 06:33:51;;;;;;;7.60;7.00;;;22.50;99.90;;;;;;5008650;28;20175;-71
2023/06/10 06:36:17;;;;;;;9.23;8.33;;;22.60;99.90;;;;;;5007328;28;20187;-71
2023/06/10 06:38:42;;;;;;;9.30;8.23;;;22.80;99.90;;;;;;5008591;28;20261;-71
2023/06/10 06:41:08;;;;;;;9.10;8.30;;;22.90;99.90;;;;;;5008620;28;20636;-71
2023/06/10 06:43:34;;;;;;;9.07;8.17;;;22.90;99.90;;;;;;5008113;28;20271;-71
2023/06/10 06:46:00;;;;;;;8.80;8.00;;;23.10;99.90;;;;;;5008836;28;20262;-71
2023/06/10 06:48:26;;;;;;;9.03;8.13;;;23.20;99.90;;;;;;5008801;28;20442;-71
2023/06/10 06:50:51;;;;;;;9.53;8.47;;;23.30;99.90;;;;;;5008518;28;20179;-71
2023/06/10 06:53:17;;;;;;;10.43;8.90;;;23.40;99.80;;;;;;5009080;28;20653;-71
2023/06/10 06:55:42;;;;;;;11.03;9.27;;;23.50;99.90;;;;;;5012428;28;20183;-71
2023/06/10 06:58:08;;;;;;;9.77;8.97;;;23.60;99.90;;;;;;5011239;28;20589;-71
2023/06/10 07:00:34;;;;;;;10.40;9.50;;;23.60;99.90;;;;;;5012268;28;20207;-71
2023/06/10 07:03:00;;;;;;;9.30;8.47;;;23.70;99.90;;;;;;5011612;28;20175;-71
2023/06/10 07:05:29;;;;;;;9.37;8.47;;;23.70;99.80;;;;;;5012004;28;20191;-71
2023/06/10 07:07:55;;;;;;;9.83;8.93;;;23.80;99.40;;;;;;5012080;28;20202;-71
2023/06/10 07:10:25;;;;;;;9.63;8.67;;;23.90;99.50;;;;;;5012169;28;20426;-71
2023/06/10 07:12:52;;;;;;;9.37;8.67;;;23.90;99.30;;;;;;5011365;28;20504;-71
2023/06/10 07:15:18;;;;;;;10.00;8.17;;;23.90;99.50;;;;;;5011656;28;20442;-71
2023/06/10 07:17:44;;;;;;;8.60;7.80;;;24.00;99.20;;;;;;5011813;28;20858;-71
2023/06/10 07:20:10;;;;;;;10.13;7.83;;;24.10;98.80;;;;;;5011441;28;20203;-71
2023/06/10 07:22:38;;;;;;;11.23;8.27;;;24.10;98.50;;;;;;5010336;28;20420;-71
2023/06/10 07:25:05;;;;;;;11.03;8.50;;;24.20;98.70;;;;;;5011158;28;20484;-71
2023/06/10 07:27:30;;;;;;;9.07;8.27;;;24.40;98.40;;;;;;5014729;28;20469;-71
2023/06/10 07:29:56;;;;;;;8.40;7.53;;;24.40;98.20;;;;;;5031202;28;20502;-71
2023/06/10 07:32:23;;;;;;;8.47;7.47;;;24.50;97.70;;;;;;5030604;28;20270;-71
2023/06/10 07:34:50;;;;;;;9.23;7.73;;;24.50;97.70;;;;;;5029682;28;20182;-71
2023/06/10 07:37:15;;;;;;;9.93;8.07;;;24.50;97.10;;;;;;5031109;28;20475;-71
2023/06/10 07:39:42;;;;;;;8.10;7.30;;;24.50;97.60;;;;;;5031118;28;20970;-71
2023/06/10 07:42:08;;;;;;;10.87;7.50;;;24.60;97.60;;;;;;5030485;28;20289;-71
2023/06/10 07:44:33;;;;;;;8.97;7.87;;;24.60;97.90;;;;;;5030944;28;21004;-71
2023/06/10 07:46:59;;;;;;;9.60;8.10;;;24.70;97.40;;;;;;5030959;28;20258;-71
2023/06/10 07:49:24;;;;;;;9.10;8.00;;;24.80;97.50;;;;;;5030871;28;20183;-71
2023/06/10 07:51:50;;;;;;;9.93;7.57;;;24.80;97.30;;;;;;5030142;28;20281;-71
2023/06/10 07:54:16;;;;;;;8.57;7.60;;;24.80;97.30;;;;;;5030659;28;20186;-71
2023/06/10 07:56:42;;;;;;;9.03;8.23;;;24.80;97.20;;;;;;5030921;28;20632;-71
2023/06/10 07:59:08;;;;;;;8.70;7.80;;;24.80;97.20;;;;;;5030767;28;20865;-71
2023/06/10 08:01:35;;;;;;;8.53;7.83;;;24.80;96.90;;;;;;5030119;28;20245;-71
2023/06/10 08:04:01;;;;;;;8.27;7.47;;;24.60;95.90;;;;;;5028497;28;20175;-71
2023/06/10 08:06:26;;;;;;;9.83;7.33;;;24.50;97.20;;;;;;5030060;28;20441;-71
2023/06/10 08:08:52;;;;;;;8.70;7.77;;;24.40;97.00;;;;;;5030642;28;20693;-71
2023/06/10 08:11:18;;;;;;;8.87;8.07;;;24.40;96.80;;;;;;5029951;28;20174;-71
2023/06/10 08:13:44;;;;;;;9.53;7.93;;;24.30;96.70;;;;;;5029983;28;20186;-71
2023/06/10 08:16:10;;;;;;;9.03;7.77;;;24.30;97.60;;;;;;5030500;28;20265;-71
2023/06/10 08:18:35;;;;;;;8.67;7.77;;;24.30;97.70;;;;;;5030461;28;20206;-71
2023/06/10 08:21:01;;;;;;;8.00;7.20;;;24.20;97.60;;;;;;5028825;28;20210;-71
2023/06/10 08:23:27;;;;;;;8.10;7.40;;;24.20;97.70;;;;;;5029442;28;20178;-71
2023/06/10 08:25:52;;;;;;;7.27;6.67;;;24.20;97.70;;;;;;5030145;28;20676;-71
2023/06/10 08:28:18;;;;;;;7.90;7.20;;;24.30;97.90;;;;;;5020349;28;20210;-71
2023/06/10 08:30:45;;;;;;;7.07;6.50;;;24.40;97.70;;;;;;5010537;28;20245;-71
2023/06/10 08:33:10;;;;;;;7.93;7.23;;;24.50;96.80;;;;;;5009363;28;20903;-71
2023/06/10 08:35:36;;;;;;;7.90;7.10;;;24.60;96.10;;;;;;5010328;28;20429;-71
2023/06/10 08:38:01;;;;;;;7.73;7.03;;;24.60;96.60;;;;;;5010029;28;20833;-71
2023/06/10 08:40:27;;;;;;;8.63;6.90;;;24.70;96.50;;;;;;5008968;28;20588;-71
2023/06/10 08:43:06;;;;;;;7.20;6.60;;;24.80;96.30;;;;;;5008055;28;20183;-71
2023/06/10 08:45:35;;;;;;;7.50;6.77;;;24.90;96.70;;;;;;5010167;28;20183;-71
2023/06/10 08:48:06;;;;;;;7.27;6.57;;;24.90;96.10;;;;;;5009872;28;20509;-71
2023/06/10 08:50:35;;;;;;;7.93;7.17;;;24.90;96.10;;;;;;5010098;28;20414;-71
2023/06/10 08:53:03;;;;;;;7.43;6.83;;;25.00;95.60;;;;;;5008976;28;20430;-71
2023/06/10 08:55:37;;;;;;;8.30;7.50;;;25.10;95.60;;;;;;5009996;28;20434;-71
2023/06/10 08:58:03;;;;;;;7.93;7.13;;;25.20;96.40;;;;;;5009791;28;20958;-71
2023/06/10 09:00:30;;;;;;;8.23;7.47;;;25.30;96.60;;;;;;5009864;28;20557;-71
2023/06/10 09:02:57;;;;;;;8.40;7.60;;;25.40;96.40;;;;;;5009052;28;21111;-71
2023/06/10 09:05:23;;;;;;;7.80;7.20;;;25.50;96.10;;;;;;5009540;28;20434;-71
2023/06/10 09:07:49;;;;;;;9.40;7.50;;;25.50;96.60;;;;;;5009539;28;20587;-71
2023/06/10 09:10:15;;;;;;;10.30;7.27;;;25.60;96.30;;;;;;5010250;28;20830;-71
2023/06/10 09:12:40;;;;;;;8.53;7.73;;;25.70;95.10;;;;;;5008913;28;20418;-71
2023/06/10 09:15:07;;;;;;;7.93;7.23;;;25.80;95.10;;;;;;5009417;28;20940;-71
2023/06/10 09:17:33;;;;;;;8.50;7.70;;;25.90;95.90;;;;;;5009293;28;20214;-71
2023/06/10 09:20:02;;;;;;;7.80;7.10;;;26.00;95.90;;;;;;5009772;28;20466;-71
2023/06/10 09:22:28;;;;;;;8.17;7.47;;;26.10;95.20;;;;;;5007391;28;20414;-71
2023/06/10 09:25:08;;;;;;;8.67;7.20;;;26.20;94.90;;;;;;5007766;28;20977;-71
2023/06/10 09:28:00;;;;;;;12.70;8.07;;;26.40;95.50;;;;;;5013032;28;20494;-71
2023/06/10 09:30:31;;;;;;;7.90;7.20;;;26.40;96.10;;;;;;5028860;28;20504;-71
2023/06/10 09:32:58;;;;;;;8.13;7.43;;;26.40;94.80;;;;;;5028112;28;20421;-71
2023/06/10 09:35:28;;;;;;;9.03;8.17;;;26.50;95.20;;;;;;5029095;28;20425;-71
2023/06/10 09:37:58;;;;;;;9.23;7.73;;;26.60;95.70;;;;;;5028835;28;20931;-71
2023/06/10 09:40:24;;;;;;;9.73;7.07;;;26.70;94.30;;;;;;5027828;28;20464;-71
2023/06/10 09:42:59;;;;;;;8.10;7.40;;;26.70;94.10;;;;;;5028166;28;20496;-71
2023/06/10 09:45:31;;;;;;;7.97;7.17;;;26.80;94.40;;;;;;5028959;28;20416;-71
2023/06/10 09:47:57;;;;;;;8.90;8.10;;;26.70;95.10;;;;;;5028664;28;20580;-71
2023/06/10 09:50:23;;;;;;;11.27;8.17;;;26.80;94.80;;;;;;5028978;28;20508;-71
2023/06/10 09:52:50;;;;;;;8.20;7.30;;;26.90;95.10;;;;;;5028042;28;20288;-71
2023/06/10 09:55:17;;;;;;;8.30;7.50;;;26.90;95.70;;;;;;5028767;28;20417;-71
2023/06/10 09:57:45;;;;;;;9.70;7.63;;;27.00;94.60;;;;;;5028633;28;20436;-71
2023/06/10 10:00:12;;;;;;;8.00;7.20;;;27.10;95.10;;;;;;5028699;28;20461;-71
2023/06/10 10:02:47;;;;;;;9.37;7.07;;;27.20;94.40;;;;;;5026785;28;20452;-71
2023/06/10 10:05:17;;;;;;;8.93;8.03;;;27.30;95.10;;;;;;5028501;28;20491;-71
2023/06/10 10:07:44;;;;;;;8.80;8.00;;;27.30;94.40;;;;;;5028559;28;20445;-71
2023/06/10 10:10:11;;;;;;;8.07;7.27;;;27.40;94.00;;;;;;5028818;28;20421;-71
2023/06/10 10:12:38;;;;;;;8.70;8.00;;;27.40;93.60;;;;;;5027790;28;20424;-71
2023/06/10 10:15:08;;;;;;;8.57;7.87;;;27.40;93.60;;;;;;5028475;28;20428;-71
2023/06/10 10:17:50;;;;;;;8.07;7.37;;;27.50;93.30;;;;;;5028369;28;20460;-71
2023/06/10 10:20:20;;;;;;;8.43;7.20;;;27.60;94.40;;;;;;5028556;28;20464;-71
2023/06/10 10:22:49;;;;;;;8.57;7.67;;;27.50;93.70;;;;;;5027759;28;20496;-71
2023/06/10 10:25:20;;;;;;;8.10;7.37;;;27.60;92.20;;;;;;5028549;28;20409;-71
2023/06/10 10:27:51;;;;;;;8.40;7.60;;;27.60;92.50;;;;;;5023658;28;20800;-71
2023/06/10 10:30:20;;;;;;;7.97;7.20;;;27.70;92.40;;;;;;5011542;28;20425;-71
2023/06/10 10:33:07;;;;;;;8.60;7.67;;;27.80;93.10;;;;;;5011703;28;20907;-71
2023/06/10 10:35:33;;;;;;;9.00;8.23;;;27.90;91.30;;;;;;5012684;28;20424;-71
2023/06/10 10:38:00;;;;;;;9.03;8.20;;;27.90;91.30;;;;;;5012310;28;20437;-71
2023/06/10 10:40:29;;;;;;;9.20;8.40;;;28.00;91.20;;;;;;5012446;28;20462;-71
2023/06/10 10:42:56;;;;;;;8.03;7.40;;;28.10;90.80;;;;;;5011558;28;20964;-71
2023/06/10 10:45:22;;;;;;;12.20;8.27;;;28.10;90.90;;;;;;5012311;28;20461;-71
2023/06/10 10:47:56;;;;;;;8.43;7.73;;;28.20;92.30;;;;;;5010855;28;20436;-71
2023/06/10 10:50:22;;;;;;;8.23;7.53;;;28.20;91.10;;;;;;5012315;28;20445;-71
2023/06/10 10:53:01;;;;;;;9.50;8.80;;;28.20;90.10;;;;;;5011417;28;20816;-71
2023/06/10 10:55:28;;;;;;;8.80;8.00;;;28.20;88.10;;;;;;5012146;28;20442;-71
2023/06/10 10:58:07;;;;;;;9.00;8.30;;;28.20;89.60;;;;;;5010827;28;21000;-71
2023/06/10 11:00:42;;;;;;;9.00;8.30;;;28.30;91.20;;;;;;5012106;28;20469;-71
2023/06/10 11:03:13;;;;;;;8.47;7.87;;;28.30;89.60;;;;;;5010981;28;20417;-71
2023/06/10 11:05:50;;;;;;;10.20;9.30;;;28.40;90.90;;;;;;5012005;28;20440;-71
2023/06/10 11:08:41;;;;;;;10.03;9.20;;;28.40;90.20;;;;;;5011996;28;20433;-71
2023/06/10 11:11:21;;;;;;;9.27;8.47;;;28.40;90.30;;;;;;5011760;28;20780;-71
2023/06/10 11:14:09;;;;;;;8.63;7.93;;;28.50;89.00;;;;;;5010564;28;20418;-71
2023/06/10 11:16:43;;;;;;;9.67;8.87;;;28.40;90.50;;;;;;5011891;28;20421;-71
2023/06/10 11:19:09;;;;;;;8.90;8.20;;;28.40;89.90;;;;;;5011338;28;20495;-71
2023/06/10 11:21:59;;;;;;;9.20;8.50;;;28.40;87.40;;;;;;5008406;28;20441;-71
2023/06/10 11:24:26;;;;;;;9.63;8.90;;;28.50;88.10;;;;;;5007871;28;20426;-71
2023/06/10 11:26:51;;;;;;;10.43;9.43;;;28.50;88.40;;;;;;5011688;28;20429;-71
2023/06/10 11:29:17;;;;;;;9.40;8.53;;;28.60;89.10;;;;;;5029021;28;20444;-71
2023/06/10 11:31:49;;;;;;;9.57;8.77;;;28.70;85.10;;;;;;5030847;28;20594;-71
2023/06/10 11:34:23;;;;;;;9.60;8.80;;;28.70;85.50;;;;;;5030798;28;20182;-71
2023/06/10 11:36:49;;;;;;;9.60;8.90;;;28.70;87.40;;;;;;5031345;28;20789;-71
2023/06/10 11:39:15;;;;;;;9.77;8.87;;;28.70;86.30;;;;;;5030865;28;20485;-71
2023/06/10 11:41:41;;;;;;;9.83;8.80;;;28.80;86.80;;;;;;5030661;28;20441;-71
2023/06/10 11:44:11;;;;;;;9.47;8.67;;;28.90;86.80;;;;;;5030608;28;20816;-71
2023/06/10 11:46:37;;;;;;;9.47;8.77;;;28.90;83.70;;;;;;5031136;28;20417;-71
2023/06/10 11:49:05;;;;;;;9.30;8.60;;;29.00;81.90;;;;;;5030986;28;20444;-71
2023/06/10 11:51:34;;;;;;;9.73;8.93;;;29.10;81.80;;;;;;5030347;28;21080;-71
2023/06/10 11:54:01;;;;;;;9.37;8.67;;;29.10;79.30;;;;;;5030489;28;20423;-71
2023/06/10 11:56:28;;;;;;;10.50;8.90;;;29.10;81.90;;;;;;5030787;28;20563;-71
2023/06/10 11:58:59;;;;;;;10.57;9.50;;;29.10;81.90;;;;;;5030601;28;20471;-71
2023/06/10 12:01:26;;;;;;;9.80;9.00;;;29.10;83.40;;;;;;5030275;28;20417;-71
2023/06/10 12:04:01;;;;;;;9.27;8.57;;;29.10;80.60;;;;;;5029062;28;20539;-71
2023/06/10 12:06:27;;;;;;;10.07;9.17;;;29.10;84.60;;;;;;5030602;28;20526;-71
2023/06/10 12:08:54;;;;;;;9.53;8.73;;;29.10;80.70;;;;;;5030469;28;20429;-71
2023/06/10 12:11:21;;;;;;;9.80;9.00;;;29.10;80.30;;;;;;5030141;28;21107;-71
2023/06/10 12:13:49;;;;;;;9.77;9.07;;;29.20;80.10;;;;;;5028273;28;20415;-71
2023/06/10 12:16:15;;;;;;;9.53;8.53;;;29.20;78.60;;;;;;5030621;28;20422;-71
2023/06/10 12:18:43;;;;;;;9.60;8.77;;;29.20;77.80;;;;;;5030264;28;20473;-71
2023/06/10 12:21:36;;;;;;;10.70;9.90;;;29.20;78.70;;;;;;5030197;28;21068;-71
2023/06/10 12:24:09;;;;;;;9.50;8.70;;;29.20;78.80;;;;;;5029636;28;20418;-71
2023/06/10 12:26:40;;;;;;;10.93;9.50;;;29.30;79.40;;;;;;5030341;28;20431;-71
2023/06/10 12:29:26;;;;;;;9.97;9.20;;;29.30;79.60;;;;;;5013594;28;20442;-71
2023/06/10 12:32:04;;;;;;;9.70;8.90;;;29.20;78.80;;;;;;5009693;28;21022;-71
2023/06/10 12:34:35;;;;;;;10.37;9.57;;;29.20;78.00;;;;;;5010033;28;20484;-71
2023/06/10 12:37:03;;;;;;;9.33;8.53;;;29.20;78.60;;;;;;5010299;28;20425;-71
2023/06/10 12:39:29;;;;;;;9.60;8.90;;;29.10;79.90;;;;;;5010063;28;20825;-71
2023/06/10 12:41:55;;;;;;;10.00;9.00;;;29.20;78.80;;;;;;5009646;28;20418;-71